Alpental, Washington
Current Conditions -  °F | °C
As of 1:53 AM on Monday 20 Oct 2014 (Local Time) from KRNT Reporting Station
Light Rain Light Rain  
Wind Chill: 60°   Ceiling: 4800
Heat Index: 60°   Visibility: NA
Dew Point: 57°   Wind: 3mph
Humidity: 90%   Direction: NA
Pressure: 29.71"   Gusts: NA
Location:  47.4076°N, 121.414°W
Report Text: KRNT 200853Z AUTO VRB03KT -RA BKN048 OVC060 16/14 A2971 RMK AO2 RAE01B43 SLP066 P0000 60000 T01560139 51007 $
Loading
Personal Weather Stations






























Interactive Weather Map
Tropical Storm Tracking
New forecast layout! Learn more

10-Day Weather Forecast

Advertisements
Track Severe Weather on mobile